sensor_id;sensor_type;location;lat;lon;timestamp;pressure;altitude;pressure_sealevel;temperature
7389;BMP180;3735;50.136;11.062;2023-05-10T00:00:06;97447.00;;;14.70
7389;BMP180;3735;50.136;11.062;2023-05-10T00:02:31;97442.00;;;14.70
7389;BMP180;3735;50.136;11.062;2023-05-10T00:04:57;97449.00;;;14.60
7389;BMP180;3735;50.136;11.062;2023-05-10T00:07:23;97437.00;;;14.60
7389;BMP180;3735;50.136;11.062;2023-05-10T00:09:49;97441.00;;;14.60
7389;BMP180;3735;50.136;11.062;2023-05-10T00:12:14;97448.00;;;14.50
7389;BMP180;3735;50.136;11.062;2023-05-10T00:14:40;97447.00;;;14.50
7389;BMP180;3735;50.136;11.062;2023-05-10T00:17:06;97445.00;;;14.60
7389;BMP180;3735;50.136;11.062;2023-05-10T00:19:31;97447.00;;;14.60
7389;BMP180;3735;50.136;11.062;2023-05-10T00:21:57;97435.00;;;14.60
7389;BMP180;3735;50.136;11.062;2023-05-10T00:24:23;97441.00;;;14.50
7389;BMP180;3735;50.136;11.062;2023-05-10T00:26:49;97436.00;;;14.60
7389;BMP180;3735;50.136;11.062;2023-05-10T00:29:14;97439.00;;;14.60
7389;BMP180;3735;50.136;11.062;2023-05-10T00:31:40;97424.00;;;14.60
7389;BMP180;3735;50.136;11.062;2023-05-10T00:34:06;97434.00;;;14.50
7389;BMP180;3735;50.136;11.062;2023-05-10T00:36:32;97418.00;;;14.50
7389;BMP180;3735;50.136;11.062;2023-05-10T00:38:58;97432.00;;;14.40
7389;BMP180;3735;50.136;11.062;2023-05-10T00:41:24;97427.00;;;14.40
7389;BMP180;3735;50.136;11.062;2023-05-10T00:43:49;97428.00;;;14.30
7389;BMP180;3735;50.136;11.062;2023-05-10T00:46:16;97434.00;;;14.30
7389;BMP180;3735;50.136;11.062;2023-05-10T00:48:43;97430.00;;;14.40
7389;BMP180;3735;50.136;11.062;2023-05-10T00:51:10;97423.00;;;14.40
7389;BMP180;3735;50.136;11.062;2023-05-10T00:53:35;97427.00;;;14.50
7389;BMP180;3735;50.136;11.062;2023-05-10T00:56:02;97424.00;;;14.50
7389;BMP180;3735;50.136;11.062;2023-05-10T00:58:29;97427.00;;;14.50
7389;BMP180;3735;50.136;11.062;2023-05-10T01:00:57;97431.00;;;14.50
7389;BMP180;3735;50.136;11.062;2023-05-10T01:03:25;97423.00;;;14.60
7389;BMP180;3735;50.136;11.062;2023-05-10T01:05:50;97427.00;;;14.50
7389;BMP180;3735;50.136;11.062;2023-05-10T01:08:16;97415.00;;;14.60
7389;BMP180;3735;50.136;11.062;2023-05-10T01:10:43;97410.00;;;14.60
7389;BMP180;3735;50.136;11.062;2023-05-10T01:13:10;97415.00;;;14.60
7389;BMP180;3735;50.136;11.062;2023-05-10T01:15:37;97423.00;;;14.60
7389;BMP180;3735;50.136;11.062;2023-05-10T01:18:04;97428.00;;;14.60
7389;BMP180;3735;50.136;11.062;2023-05-10T01:20:40;97415.00;;;14.60
7389;BMP180;3735;50.136;11.062;2023-05-10T01:23:45;97411.00;;;14.50
7389;BMP180;3735;50.136;11.062;2023-05-10T01:30:11;97424.00;;;14.50
7389;BMP180;3735;50.136;11.062;2023-05-10T01:35:52;97426.00;;;14.60
7389;BMP180;3735;50.136;11.062;2023-05-10T01:38:38;97415.00;;;14.50
7389;BMP180;3735;50.136;11.062;2023-05-10T01:41:47;97424.00;;;14.60
7389;BMP180;3735;50.136;11.062;2023-05-10T01:44:18;97420.00;;;14.50
7389;BMP180;3735;50.136;11.062;2023-05-10T01:46:53;97426.00;;;14.50
7389;BMP180;3735;50.136;11.062;2023-05-10T01:49:26;97424.00;;;14.50
7389;BMP180;3735;50.136;11.062;2023-05-10T01:51:59;97426.00;;;14.50
7389;BMP180;3735;50.136;11.062;2023-05-10T01:54:28;97425.00;;;14.40
7389;BMP180;3735;50.136;11.062;2023-05-10T01:57:03;97423.00;;;14.40
7389;BMP180;3735;50.136;11.062;2023-05-10T01:59:34;97424.00;;;14.40
7389;BMP180;3735;50.136;11.062;2023-05-10T02:02:08;97431.00;;;14.40
7389;BMP180;3735;50.136;11.062;2023-05-10T02:04:39;97430.00;;;14.40
7389;BMP180;3735;50.136;11.062;2023-05-10T02:07:07;97428.00;;;14.40
7389;BMP180;3735;50.136;11.062;2023-05-10T02:09:36;97429.00;;;14.50
7389;BMP180;3735;50.136;11.062;2023-05-10T02:12:05;97427.00;;;14.50
7389;BMP180;3735;50.136;11.062;2023-05-10T02:14:35;97416.00;;;14.40
7389;BMP180;3735;50.136;11.062;2023-05-10T02:17:04;97426.00;;;14.40
7389;BMP180;3735;50.136;11.062;2023-05-10T02:19:32;97422.00;;;14.40
7389;BMP180;3735;50.136;11.062;2023-05-10T02:22:00;97422.00;;;14.40
7389;BMP180;3735;50.136;11.062;2023-05-10T02:24:28;97421.00;;;14.40
7389;BMP180;3735;50.136;11.062;2023-05-10T02:26:55;97418.00;;;14.30
7389;BMP180;3735;50.136;11.062;2023-05-10T02:29:24;97423.00;;;14.00
7389;BMP180;3735;50.136;11.062;2023-05-10T02:31:56;97426.00;;;13.80
7389;BMP180;3735;50.136;11.062;2023-05-10T02:34:25;97424.00;;;13.60
7389;BMP180;3735;50.136;11.062;2023-05-10T02:36:53;97421.00;;;13.50
7389;BMP180;3735;50.136;11.062;2023-05-10T02:39:20;97424.00;;;13.40
7389;BMP180;3735;50.136;11.062;2023-05-10T02:41:48;97429.00;;;13.40
7389;BMP180;3735;50.136;11.062;2023-05-10T02:44:17;97429.00;;;13.30
7389;BMP180;3735;50.136;11.062;2023-05-10T02:46:44;97431.00;;;13.20
7389;BMP180;3735;50.136;11.062;2023-05-10T02:49:10;97428.00;;;13.20
7389;BMP180;3735;50.136;11.062;2023-05-10T02:51:44;97426.00;;;13.10
7389;BMP180;3735;50.136;11.062;2023-05-10T02:54:20;97429.00;;;13.10
7389;BMP180;3735;50.136;11.062;2023-05-10T02:56:58;97436.00;;;13.10
7389;BMP180;3735;50.136;11.062;2023-05-10T02:59:26;97434.00;;;13.10
7389;BMP180;3735;50.136;11.062;2023-05-10T03:01:52;97429.00;;;13.10
7389;BMP180;3735;50.136;11.062;2023-05-10T03:04:18;97427.00;;;13.10
7389;BMP180;3735;50.136;11.062;2023-05-10T03:06:44;97418.00;;;13.10
7389;BMP180;3735;50.136;11.062;2023-05-10T03:09:11;97427.00;;;13.10
7389;BMP180;3735;50.136;11.062;2023-05-10T03:15:22;97424.00;;;13.10
7389;BMP180;3735;50.136;11.062;2023-05-10T03:20:19;97425.00;;;13.10
7389;BMP180;3735;50.136;11.062;2023-05-10T03:23:02;97423.00;;;13.10
7389;BMP180;3735;50.136;11.062;2023-05-10T03:25:31;97431.00;;;13.10
7389;BMP180;3735;50.136;11.062;2023-05-10T03:27:59;97429.00;;;13.10
7389;BMP180;3735;50.136;11.062;2023-05-10T03:30:26;97427.00;;;13.10
7389;BMP180;3735;50.136;11.062;2023-05-10T03:32:53;97419.00;;;13.10
7389;BMP180;3735;50.136;11.062;2023-05-10T03:35:20;97425.00;;;13.10
7389;BMP180;3735;50.136;11.062;2023-05-10T03:37:45;97432.00;;;13.10
7389;BMP180;3735;50.136;11.062;2023-05-10T03:40:13;97436.00;;;13.10
7389;BMP180;3735;50.136;11.062;2023-05-10T03:42:38;97438.00;;;13.00
7389;BMP180;3735;50.136;11.062;2023-05-10T03:45:05;97443.00;;;13.00
7389;BMP180;3735;50.136;11.062;2023-05-10T03:47:31;97447.00;;;12.90
7389;BMP180;3735;50.136;11.062;2023-05-10T03:49:57;97443.00;;;12.90
7389;BMP180;3735;50.136;11.062;2023-05-10T03:52:23;97443.00;;;12.80
7389;BMP180;3735;50.136;11.062;2023-05-10T03:54:49;97443.00;;;12.70
7389;BMP180;3735;50.136;11.062;2023-05-10T03:57:14;97428.00;;;12.60
7389;BMP180;3735;50.136;11.062;2023-05-10T03:59:40;97436.00;;;12.60
7389;BMP180;3735;50.136;11.062;2023-05-10T04:02:06;97431.00;;;12.60
7389;BMP180;3735;50.136;11.062;2023-05-10T04:04:32;97429.00;;;12.50
7389;BMP180;3735;50.136;11.062;2023-05-10T04:06:58;97430.00;;;12.50
7389;BMP180;3735;50.136;11.062;2023-05-10T04:09:23;97430.00;;;12.60
7389;BMP180;3735;50.136;11.062;2023-05-10T04:11:49;97428.00;;;12.60
7389;BMP180;3735;50.136;11.062;2023-05-10T04:14:15;97430.00;;;12.50
7389;BMP180;3735;50.136;11.062;2023-05-10T04:16:41;97432.00;;;12.50
7389;BMP180;3735;50.136;11.062;2023-05-10T04:19:07;97443.00;;;12.50
7389;BMP180;3735;50.136;11.062;2023-05-10T04:21:33;97448.00;;;12.50
7389;BMP180;3735;50.136;11.062;2023-05-10T04:23:59;97443.00;;;12.40
7389;BMP180;3735;50.136;11.062;2023-05-10T04:26:24;97442.00;;;12.30
7389;BMP180;3735;50.136;11.062;2023-05-10T04:28:51;97442.00;;;12.30
7389;BMP180;3735;50.136;11.062;2023-05-10T04:31:16;97447.00;;;12.30
7389;BMP180;3735;50.136;11.062;2023-05-10T04:33:42;97460.00;;;12.20
7389;BMP180;3735;50.136;11.062;2023-05-10T04:36:08;97459.00;;;12.20
7389;BMP180;3735;50.136;11.062;2023-05-10T04:38:34;97465.00;;;12.20
7389;BMP180;3735;50.136;11.062;2023-05-10T04:41:07;97466.00;;;12.20
7389;BMP180;3735;50.136;11.062;2023-05-10T04:43:34;97461.00;;;12.20
7389;BMP180;3735;50.136;11.062;2023-05-10T04:46:00;97471.00;;;12.20
7389;BMP180;3735;50.136;11.062;2023-05-10T04:48:26;97453.00;;;12.20
7389;BMP180;3735;50.136;11.062;2023-05-10T04:50:52;97457.00;;;12.30
7389;BMP180;3735;50.136;11.062;2023-05-10T04:53:18;97466.00;;;12.30
7389;BMP180;3735;50.136;11.062;2023-05-10T04:55:43;97466.00;;;12.50
7389;BMP180;3735;50.136;11.062;2023-05-10T04:58:09;97472.00;;;12.60
7389;BMP180;3735;50.136;11.062;2023-05-10T05:00:35;97467.00;;;12.60
7389;BMP180;3735;50.136;11.062;2023-05-10T05:03:01;97472.00;;;12.80
7389;BMP180;3735;50.136;11.062;2023-05-10T05:05:26;97483.00;;;12.80
7389;BMP180;3735;50.136;11.062;2023-05-10T05:07:52;97481.00;;;12.90
7389;BMP180;3735;50.136;11.062;2023-05-10T05:10:18;97485.00;;;13.00
7389;BMP180;3735;50.136;11.062;2023-05-10T05:12:44;97494.00;;;13.00
7389;BMP180;3735;50.136;11.062;2023-05-10T05:15:10;97493.00;;;13.00
7389;BMP180;3735;50.136;11.062;2023-05-10T05:17:36;97490.00;;;13.00
7389;BMP180;3735;50.136;11.062;2023-05-10T05:20:03;97495.00;;;12.90
7389;BMP180;3735;50.136;11.062;2023-05-10T05:22:29;97495.00;;;13.00
7389;BMP180;3735;50.136;11.062;2023-05-10T05:24:55;97501.00;;;13.00
7389;BMP180;3735;50.136;11.062;2023-05-10T05:27:22;97504.00;;;13.00
7389;BMP180;3735;50.136;11.062;2023-05-10T05:29:50;97505.00;;;12.90
7389;BMP180;3735;50.136;11.062;2023-05-10T05:32:17;97497.00;;;12.90
7389;BMP180;3735;50.136;11.062;2023-05-10T05:34:46;97505.00;;;12.90
7389;BMP180;3735;50.136;11.062;2023-05-10T05:37:17;97516.00;;;12.90
7389;BMP180;3735;50.136;11.062;2023-05-10T05:39:44;97519.00;;;12.80
7389;BMP180;3735;50.136;11.062;2023-05-10T05:42:10;97528.00;;;12.80
7389;BMP180;3735;50.136;11.062;2023-05-10T05:44:36;97528.00;;;12.80
7389;BMP180;3735;50.136;11.062;2023-05-10T05:47:03;97525.00;;;12.80
7389;BMP180;3735;50.136;11.062;2023-05-10T05:49:29;97515.00;;;12.80
7389;BMP180;3735;50.136;11.062;2023-05-10T05:51:58;97531.00;;;12.80
7389;BMP180;3735;50.136;11.062;2023-05-10T05:54:24;97535.00;;;12.80
7389;BMP180;3735;50.136;11.062;2023-05-10T05:56:50;97533.00;;;12.80
7389;BMP180;3735;50.136;11.062;2023-05-10T05:59:15;97534.00;;;12.80
7389;BMP180;3735;50.136;11.062;2023-05-10T06:01:41;97532.00;;;12.80
7389;BMP180;3735;50.136;11.062;2023-05-10T06:04:07;97534.00;;;12.80
7389;BMP180;3735;50.136;11.062;2023-05-10T06:06:33;97546.00;;;12.80
7389;BMP180;3735;50.136;11.062;2023-05-10T06:08:58;97542.00;;;12.80
7389;BMP180;3735;50.136;11.062;2023-05-10T06:11:25;97544.00;;;12.90
7389;BMP180;3735;50.136;11.062;2023-05-10T06:13:51;97538.00;;;13.00
7389;BMP180;3735;50.136;11.062;2023-05-10T06:16:17;97560.00;;;13.10
7389;BMP180;3735;50.136;11.062;2023-05-10T06:18:43;97542.00;;;13.20
7389;BMP180;3735;50.136;11.062;2023-05-10T06:21:09;97548.00;;;13.30
7389;BMP180;3735;50.136;11.062;2023-05-10T06:23:34;97545.00;;;13.30
7389;BMP180;3735;50.136;11.062;2023-05-10T06:26:01;97549.00;;;13.30
7389;BMP180;3735;50.136;11.062;2023-05-10T06:28:27;97558.00;;;13.30
7389;BMP180;3735;50.136;11.062;2023-05-10T06:30:53;97549.00;;;13.30
7389;BMP180;3735;50.136;11.062;2023-05-10T06:33:18;97569.00;;;13.30
7389;BMP180;3735;50.136;11.062;2023-05-10T06:35:44;97561.00;;;13.30
7389;BMP180;3735;50.136;11.062;2023-05-10T06:38:10;97570.00;;;13.40
7389;BMP180;3735;50.136;11.062;2023-05-10T06:40:36;97567.00;;;13.60
7389;BMP180;3735;50.136;11.062;2023-05-10T06:43:01;97570.00;;;13.70
7389;BMP180;3735;50.136;11.062;2023-05-10T06:45:27;97571.00;;;13.70
7389;BMP180;3735;50.136;11.062;2023-05-10T06:47:53;97578.00;;;13.90
7389;BMP180;3735;50.136;11.062;2023-05-10T06:50:19;97579.00;;;13.90
7389;BMP180;3735;50.136;11.062;2023-05-10T06:52:44;97575.00;;;13.80
7389;BMP180;3735;50.136;11.062;2023-05-10T06:55:10;97572.00;;;13.80
7389;BMP180;3735;50.136;11.062;2023-05-10T06:57:36;97577.00;;;13.90
7389;BMP180;3735;50.136;11.062;2023-05-10T07:00:03;97576.00;;;13.90
7389;BMP180;3735;50.136;11.062;2023-05-10T07:02:30;97573.00;;;14.00
7389;BMP180;3735;50.136;11.062;2023-05-10T07:04:56;97573.00;;;14.10
7389;BMP180;3735;50.136;11.062;2023-05-10T07:07:21;97562.00;;;14.20
7389;BMP180;3735;50.136;11.062;2023-05-10T07:09:47;97574.00;;;14.30
7389;BMP180;3735;50.136;11.062;2023-05-10T07:12:14;97577.00;;;14.30
7389;BMP180;3735;50.136;11.062;2023-05-10T07:14:40;97576.00;;;14.50
7389;BMP180;3735;50.136;11.062;2023-05-10T07:17:05;97578.00;;;14.60
7389;BMP180;3735;50.136;11.062;2023-05-10T07:19:31;97584.00;;;14.90
7389;BMP180;3735;50.136;11.062;2023-05-10T07:21:58;97577.00;;;15.00
7389;BMP180;3735;50.136;11.062;2023-05-10T07:24:24;97586.00;;;15.10
7389;BMP180;3735;50.136;11.062;2023-05-10T07:26:49;97586.00;;;15.20
7389;BMP180;3735;50.136;11.062;2023-05-10T07:29:15;97577.00;;;15.00
7389;BMP180;3735;50.136;11.062;2023-05-10T07:31:41;97583.00;;;15.30
7389;BMP180;3735;50.136;11.062;2023-05-10T07:34:08;97577.00;;;15.50
7389;BMP180;3735;50.136;11.062;2023-05-10T07:36:34;97587.00;;;15.60
7389;BMP180;3735;50.136;11.062;2023-05-10T07:39:00;97584.00;;;15.90
7389;BMP180;3735;50.136;11.062;2023-05-10T07:41:26;97598.00;;;15.80
7389;BMP180;3735;50.136;11.062;2023-05-10T07:43:52;97599.00;;;16.00
7389;BMP180;3735;50.136;11.062;2023-05-10T07:46:18;97592.00;;;16.30
7389;BMP180;3735;50.136;11.062;2023-05-10T07:48:45;97595.00;;;16.30
7389;BMP180;3735;50.136;11.062;2023-05-10T07:51:11;97590.00;;;16.20
7389;BMP180;3735;50.136;11.062;2023-05-10T07:53:38;97587.00;;;15.90
7389;BMP180;3735;50.136;11.062;2023-05-10T07:56:24;97606.00;;;15.70
7389;BMP180;3735;50.136;11.062;2023-05-10T07:58:51;97600.00;;;15.50
7389;BMP180;3735;50.136;11.062;2023-05-10T08:01:18;97592.00;;;15.40
7389;BMP180;3735;50.136;11.062;2023-05-10T08:03:44;97606.00;;;15.50
7389;BMP180;3735;50.136;11.062;2023-05-10T08:06:09;97609.00;;;15.40
7389;BMP180;3735;50.136;11.062;2023-05-10T08:08:35;97611.00;;;15.40
7389;BMP180;3735;50.136;11.062;2023-05-10T08:11:01;97611.00;;;15.30
7389;BMP180;3735;50.136;11.062;2023-05-10T08:13:27;97603.00;;;15.40
7389;BMP180;3735;50.136;11.062;2023-05-10T08:15:53;97619.00;;;15.40
7389;BMP180;3735;50.136;11.062;2023-05-10T08:18:19;97612.00;;;15.70
7389;BMP180;3735;50.136;11.062;2023-05-10T08:20:45;97613.00;;;15.90
7389;BMP180;3735;50.136;11.062;2023-05-10T08:23:12;97614.00;;;16.10
7389;BMP180;3735;50.136;11.062;2023-05-10T08:25:38;97620.00;;;16.10
7389;BMP180;3735;50.136;11.062;2023-05-10T08:28:04;97596.00;;;16.30
7389;BMP180;3735;50.136;11.062;2023-05-10T08:30:30;97625.00;;;16.40
7389;BMP180;3735;50.136;11.062;2023-05-10T08:32:56;97610.00;;;16.70
7389;BMP180;3735;50.136;11.062;2023-05-10T08:35:21;97622.00;;;17.20
7389;BMP180;3735;50.136;11.062;2023-05-10T08:37:47;97634.00;;;17.20
7389;BMP180;3735;50.136;11.062;2023-05-10T08:40:14;97629.00;;;17.50
7389;BMP180;3735;50.136;11.062;2023-05-10T08:42:49;97625.00;;;17.90
7389;BMP180;3735;50.136;11.062;2023-05-10T08:45:17;97628.00;;;18.30
7389;BMP180;3735;50.136;11.062;2023-05-10T08:47:45;97631.00;;;18.90
7389;BMP180;3735;50.136;11.062;2023-05-10T08:50:11;97633.00;;;19.60
7389;BMP180;3735;50.136;11.062;2023-05-10T08:52:40;97630.00;;;20.00
7389;BMP180;3735;50.136;11.062;2023-05-10T08:55:06;97625.00;;;20.70
7389;BMP180;3735;50.136;11.062;2023-05-10T08:57:32;97633.00;;;21.00
7389;BMP180;3735;50.136;11.062;2023-05-10T09:00:01;97629.00;;;21.00
7389;BMP180;3735;50.136;11.062;2023-05-10T09:02:27;97632.00;;;20.70
7389;BMP180;3735;50.136;11.062;2023-05-10T09:04:52;97633.00;;;20.80
7389;BMP180;3735;50.136;11.062;2023-05-10T09:07:19;97637.00;;;20.50
7389;BMP180;3735;50.136;11.062;2023-05-10T09:09:46;97649.00;;;19.90
7389;BMP180;3735;50.136;11.062;2023-05-10T09:12:13;97652.00;;;19.30
7389;BMP180;3735;50.136;11.062;2023-05-10T09:14:43;97653.00;;;19.00
7389;BMP180;3735;50.136;11.062;2023-05-10T09:17:10;97654.00;;;19.00
7389;BMP180;3735;50.136;11.062;2023-05-10T09:19:36;97649.00;;;19.50
7389;BMP180;3735;50.136;11.062;2023-05-10T09:22:01;97654.00;;;19.40
7389;BMP180;3735;50.136;11.062;2023-05-10T09:24:30;97652.00;;;19.50
7389;BMP180;3735;50.136;11.062;2023-05-10T09:26:57;97657.00;;;19.70
7389;BMP180;3735;50.136;11.062;2023-05-10T09:29:38;97663.00;;;19.00
7389;BMP180;3735;50.136;11.062;2023-05-10T09:32:04;97662.00;;;18.60
7389;BMP180;3735;50.136;11.062;2023-05-10T09:34:31;97663.00;;;18.70
7389;BMP180;3735;50.136;11.062;2023-05-10T09:37:00;97653.00;;;18.90
7389;BMP180;3735;50.136;11.062;2023-05-10T09:39:37;97658.00;;;19.50
7389;BMP180;3735;50.136;11.062;2023-05-10T09:42:08;97656.00;;;20.40
7389;BMP180;3735;50.136;11.062;2023-05-10T09:44:35;97653.00;;;19.80
7389;BMP180;3735;50.136;11.062;2023-05-10T09:47:02;97652.00;;;20.20
7389;BMP180;3735;50.136;11.062;2023-05-10T09:49:28;97660.00;;;20.20
7389;BMP180;3735;50.136;11.062;2023-05-10T09:52:05;97661.00;;;20.20
7389;BMP180;3735;50.136;11.062;2023-05-10T09:54:33;97662.00;;;19.80
7389;BMP180;3735;50.136;11.062;2023-05-10T09:57:00;97663.00;;;19.30
7389;BMP180;3735;50.136;11.062;2023-05-10T09:59:28;97660.00;;;19.70
7389;BMP180;3735;50.136;11.062;2023-05-10T10:01:59;97663.00;;;19.30
7389;BMP180;3735;50.136;11.062;2023-05-10T10:04:26;97664.00;;;19.10
7389;BMP180;3735;50.136;11.062;2023-05-10T10:07:03;97669.00;;;19.20
7389;BMP180;3735;50.136;11.062;2023-05-10T10:09:30;97665.00;;;19.40
7389;BMP180;3735;50.136;11.062;2023-05-10T10:11:56;97671.00;;;19.60
7389;BMP180;3735;50.136;11.062;2023-05-10T10:14:23;97664.00;;;19.40
7389;BMP180;3735;50.136;11.062;2023-05-10T10:16:52;97664.00;;;19.10
7389;BMP180;3735;50.136;11.062;2023-05-10T10:19:22;97665.00;;;18.70
7389;BMP180;3735;50.136;11.062;2023-05-10T10:21:49;97689.00;;;17.70
7389;BMP180;3735;50.136;11.062;2023-05-10T10:24:15;97689.00;;;16.60
7389;BMP180;3735;50.136;11.062;2023-05-10T10:26:42;97687.00;;;16.00
7389;BMP180;3735;50.136;11.062;2023-05-10T10:29:42;97696.00;;;15.60
7389;BMP180;3735;50.136;11.062;2023-05-10T10:35:19;97702.00;;;15.10
7389;BMP180;3735;50.136;11.062;2023-05-10T10:37:47;97698.00;;;14.90
7389;BMP180;3735;50.136;11.062;2023-05-10T10:40:31;97704.00;;;14.80
7389;BMP180;3735;50.136;11.062;2023-05-10T10:42:58;97700.00;;;14.90
7389;BMP180;3735;50.136;11.062;2023-05-10T10:45:25;97703.00;;;15.00
7389;BMP180;3735;50.136;11.062;2023-05-10T10:48:21;97699.00;;;15.10
7389;BMP180;3735;50.136;11.062;2023-05-10T10:50:47;97697.00;;;15.30
7389;BMP180;3735;50.136;11.062;2023-05-10T10:53:13;97694.00;;;15.40
7389;BMP180;3735;50.136;11.062;2023-05-10T10:55:47;97692.00;;;15.70
7389;BMP180;3735;50.136;11.062;2023-05-10T10:58:33;97682.00;;;16.10
7389;BMP180;3735;50.136;11.062;2023-05-10T11:01:19;97684.00;;;16.60
7389;BMP180;3735;50.136;11.062;2023-05-10T11:06:34;97681.00;;;17.80
7389;BMP180;3735;50.136;11.062;2023-05-10T11:09:11;97668.00;;;18.90
7389;BMP180;3735;50.136;11.062;2023-05-10T11:11:54;97660.00;;;20.00
7389;BMP180;3735;50.136;11.062;2023-05-10T11:14:21;97661.00;;;20.70
7389;BMP180;3735;50.136;11.062;2023-05-10T11:16:48;97660.00;;;20.80
7389;BMP180;3735;50.136;11.062;2023-05-10T11:19:16;97651.00;;;21.60
7389;BMP180;3735;50.136;11.062;2023-05-10T11:21:50;97659.00;;;22.00
7389;BMP180;3735;50.136;11.062;2023-05-10T11:24:27;97652.00;;;22.60
7389;BMP180;3735;50.136;11.062;2023-05-10T11:26:53;97655.00;;;21.80
7389;BMP180;3735;50.136;11.062;2023-05-10T11:29:19;97663.00;;;21.50
7389;BMP180;3735;50.136;11.062;2023-05-10T11:31:47;97665.00;;;21.50
7389;BMP180;3735;50.136;11.062;2023-05-10T11:34:24;97669.00;;;21.60
7389;BMP180;3735;50.136;11.062;2023-05-10T11:36:55;97669.00;;;21.70
7389;BMP180;3735;50.136;11.062;2023-05-10T11:39:26;97665.00;;;21.30
7389;BMP180;3735;50.136;11.062;2023-05-10T11:41:53;97667.00;;;21.80
7389;BMP180;3735;50.136;11.062;2023-05-10T11:44:18;97665.00;;;21.30
7389;BMP180;3735;50.136;11.062;2023-05-10T11:46:44;97680.00;;;21.90
7389;BMP180;3735;50.136;11.062;2023-05-10T11:49:11;97676.00;;;21.50
7389;BMP180;3735;50.136;11.062;2023-05-10T11:51:37;97694.00;;;20.40
7389;BMP180;3735;50.136;11.062;2023-05-10T11:54:10;97710.00;;;18.30
7389;BMP180;3735;50.136;11.062;2023-05-10T11:56:40;97706.00;;;17.50
7389;BMP180;3735;50.136;11.062;2023-05-10T11:59:06;97710.00;;;17.00
7389;BMP180;3735;50.136;11.062;2023-05-10T12:01:34;97714.00;;;16.60
7389;BMP180;3735;50.136;11.062;2023-05-10T12:04:01;97699.00;;;16.50
7389;BMP180;3735;50.136;11.062;2023-05-10T12:06:34;97687.00;;;16.40
7389;BMP180;3735;50.136;11.062;2023-05-10T12:09:06;97717.00;;;16.30
7389;BMP180;3735;50.136;11.062;2023-05-10T12:11:39;97719.00;;;16.40
7389;BMP180;3735;50.136;11.062;2023-05-10T12:14:06;97719.00;;;16.40
7389;BMP180;3735;50.136;11.062;2023-05-10T12:16:32;97712.00;;;16.40
7389;BMP180;3735;50.136;11.062;2023-05-10T12:19:00;97710.00;;;16.30
7389;BMP180;3735;50.136;11.062;2023-05-10T12:21:28;97705.00;;;16.40
7389;BMP180;3735;50.136;11.062;2023-05-10T12:23:59;97702.00;;;16.60
7389;BMP180;3735;50.136;11.062;2023-05-10T12:26:25;97704.00;;;16.50
7389;BMP180;3735;50.136;11.062;2023-05-10T12:29:00;97691.00;;;16.60
7389;BMP180;3735;50.136;11.062;2023-05-10T12:31:59;97704.00;;;16.80
7389;BMP180;3735;50.136;11.062;2023-05-10T12:34:31;97709.00;;;17.00
7389;BMP180;3735;50.136;11.062;2023-05-10T12:36:58;97708.00;;;17.40
7389;BMP180;3735;50.136;11.062;2023-05-10T12:39:25;97710.00;;;17.70
7389;BMP180;3735;50.136;11.062;2023-05-10T12:41:51;97709.00;;;18.00
7389;BMP180;3735;50.136;11.062;2023-05-10T12:44:18;97708.00;;;18.30
7389;BMP180;3735;50.136;11.062;2023-05-10T12:46:44;97710.00;;;18.40
7389;BMP180;3735;50.136;11.062;2023-05-10T12:49:09;97708.00;;;18.70
7389;BMP180;3735;50.136;11.062;2023-05-10T12:51:36;97705.00;;;18.70
7389;BMP180;3735;50.136;11.062;2023-05-10T12:54:02;97710.00;;;19.20
7389;BMP180;3735;50.136;11.062;2023-05-10T12:56:28;97706.00;;;19.60
7389;BMP180;3735;50.136;11.062;2023-05-10T12:58:54;97700.00;;;20.00
7389;BMP180;3735;50.136;11.062;2023-05-10T13:01:20;97701.00;;;20.20
7389;BMP180;3735;50.136;11.062;2023-05-10T13:03:45;97699.00;;;20.20
7389;BMP180;3735;50.136;11.062;2023-05-10T13:06:11;97700.00;;;20.80
7389;BMP180;3735;50.136;11.062;2023-05-10T13:08:38;97688.00;;;21.00
7389;BMP180;3735;50.136;11.062;2023-05-10T13:11:06;97693.00;;;20.50
7389;BMP180;3735;50.136;11.062;2023-05-10T13:13:33;97697.00;;;21.20
7389;BMP180;3735;50.136;11.062;2023-05-10T13:15:58;97687.00;;;21.30
7389;BMP180;3735;50.136;11.062;2023-05-10T13:18:24;97697.00;;;21.60
7389;BMP180;3735;50.136;11.062;2023-05-10T13:20:51;97699.00;;;21.50
7389;BMP180;3735;50.136;11.062;2023-05-10T13:23:17;97693.00;;;21.50
7389;BMP180;3735;50.136;11.062;2023-05-10T13:25:43;97686.00;;;21.60
7389;BMP180;3735;50.136;11.062;2023-05-10T13:28:08;97685.00;;;21.70
7389;BMP180;3735;50.136;11.062;2023-05-10T13:30:34;97685.00;;;21.50
7389;BMP180;3735;50.136;11.062;2023-05-10T13:33:00;97686.00;;;20.70
7389;BMP180;3735;50.136;11.062;2023-05-10T13:35:26;97694.00;;;20.40
7389;BMP180;3735;50.136;11.062;2023-05-10T13:37:51;97697.00;;;20.00
7389;BMP180;3735;50.136;11.062;2023-05-10T13:40:19;97689.00;;;19.70
7389;BMP180;3735;50.136;11.062;2023-05-10T13:42:44;97701.00;;;19.60
7389;BMP180;3735;50.136;11.062;2023-05-10T13:45:10;97688.00;;;19.30
7389;BMP180;3735;50.136;11.062;2023-05-10T13:47:38;97703.00;;;19.50
7389;BMP180;3735;50.136;11.062;2023-05-10T13:50:04;97699.00;;;19.60
7389;BMP180;3735;50.136;11.062;2023-05-10T13:52:30;97698.00;;;19.80
7389;BMP180;3735;50.136;11.062;2023-05-10T13:54:56;97687.00;;;19.90
7389;BMP180;3735;50.136;11.062;2023-05-10T13:57:22;97694.00;;;20.20
7389;BMP180;3735;50.136;11.062;2023-05-10T13:59:49;97693.00;;;20.30
7389;BMP180;3735;50.136;11.062;2023-05-10T14:02:15;97695.00;;;20.60
7389;BMP180;3735;50.136;11.062;2023-05-10T14:04:41;97696.00;;;20.80
7389;BMP180;3735;50.136;11.062;2023-05-10T14:07:07;97683.00;;;21.00
7389;BMP180;3735;50.136;11.062;2023-05-10T14:09:32;97692.00;;;21.40
7389;BMP180;3735;50.136;11.062;2023-05-10T14:11:58;97679.00;;;21.40
7389;BMP180;3735;50.136;11.062;2023-05-10T14:14:24;97678.00;;;21.70
7389;BMP180;3735;50.136;11.062;2023-05-10T14:16:50;97677.00;;;21.90
7389;BMP180;3735;50.136;11.062;2023-05-10T14:19:16;97671.00;;;22.40
7389;BMP180;3735;50.136;11.062;2023-05-10T14:21:41;97678.00;;;22.60
7389;BMP180;3735;50.136;11.062;2023-05-10T14:24:08;97682.00;;;23.30
7389;BMP180;3735;50.136;11.062;2023-05-10T14:26:34;97666.00;;;23.40
7389;BMP180;3735;50.136;11.062;2023-05-10T14:29:00;97670.00;;;23.40
7389;BMP180;3735;50.136;11.062;2023-05-10T14:31:25;97666.00;;;23.50
7389;BMP180;3735;50.136;11.062;2023-05-10T14:33:52;97670.00;;;23.30
7389;BMP180;3735;50.136;11.062;2023-05-10T14:36:18;97668.00;;;23.20
7389;BMP180;3735;50.136;11.062;2023-05-10T14:38:44;97660.00;;;23.20
7389;BMP180;3735;50.136;11.062;2023-05-10T14:41:09;97660.00;;;23.30
7389;BMP180;3735;50.136;11.062;2023-05-10T14:43:39;97667.00;;;23.10